Time,TemperatureF,DewpointF,PressureIn,WindDirection,WindDirectionDegrees,WindSpeedMPH,WindSpeedGustMPH,Humidity,HourlyPrecipIn,Conditions,Clouds,dailyrainin,SolarRadiationWatts/m^2,SoftwareType,DateUTC
2013-02-14 00:01:00,45.0,25.0,-100.00,NW,324,0.0,7.0,45,0.00,,,0.00,0.000000,,2013-02-14 08:01:00,
2013-02-14 00:11:00,45.0,25.0,-100.00,NW,324,0.0,7.0,45,0.00,,,0.00,0.000000,,2013-02-14 08:11:00,
2013-02-14 00:43:00,43.0,26.0,-100.00,SSW,199,0.0,5.0,50,0.00,,,0.00,0.000000,,2013-02-14 08:43:00,
2013-02-14 00:52:00,43.0,26.0,-100.00,SSW,199,0.0,5.0,50,0.00,,,0.00,0.000000,,2013-02-14 08:52:00,
2013-02-14 01:01:00,43.0,26.0,-100.00,SSW,199,0.0,5.0,50,0.00,,,0.00,0.000000,,2013-02-14 09:01:00,
2013-02-14 01:11:00,43.0,26.0,-100.00,SSW,199,0.0,5.0,50,0.00,,,0.00,0.000000,,2013-02-14 09:11:00,
2013-02-14 01:32:00,45.0,28.0,-100.00,East,94,2.0,8.0,51,0.00,,,0.00,0.000000,,2013-02-14 09:32:00,
2013-02-14 01:42:00,45.0,28.0,-100.00,East,94,2.0,8.0,51,0.00,,,0.00,0.000000,,2013-02-14 09:42:00,
2013-02-14 01:52:00,45.0,28.0,-100.00,East,94,2.0,8.0,51,0.00,,,0.00,0.000000,,2013-02-14 09:52:00,
2013-02-14 02:02:00,45.0,28.0,-100.00,East,94,2.0,8.0,51,0.00,,,0.00,0.000000,,2013-02-14 10:02:00,
2013-02-14 02:11:00,45.0,28.0,-100.00,East,94,2.0,8.0,51,0.00,,,0.00,0.000000,,2013-02-14 10:11:00,
2013-02-14 02:42:00,44.0,26.0,-100.00,NNE,32,0.0,8.0,49,0.00,,,0.00,0.000000,,2013-02-14 10:42:00,
2013-02-14 02:52:00,44.0,26.0,-100.00,NNE,32,0.0,8.0,49,0.00,,,0.00,0.000000,,2013-02-14 10:52:00,
2013-02-14 03:01:00,44.0,26.0,-100.00,NNE,32,0.0,8.0,49,0.00,,,0.00,0.000000,,2013-02-14 11:01:00,
2013-02-14 03:11:00,44.0,26.0,-100.00,NNE,32,0.0,8.0,49,0.00,,,0.00,0.000000,,2013-02-14 11:11:00,
2013-02-14 03:42:00,44.0,26.0,-100.00,West,271,1.0,10.0,49,0.00,,,0.00,0.000000,,2013-02-14 11:42:00,
2013-02-14 03:52:00,44.0,26.0,-100.00,West,271,1.0,10.0,49,0.00,,,0.00,0.000000,,2013-02-14 11:52:00,
2013-02-14 04:01:00,44.0,26.0,-100.00,West,271,1.0,10.0,49,0.00,,,0.00,0.000000,,2013-02-14 12:01:00,
2013-02-14 04:11:00,44.0,26.0,-100.00,West,271,1.0,10.0,49,0.00,,,0.00,0.000000,,2013-02-14 12:11:00,
2013-02-14 04:42:00,45.0,28.0,-100.00,NNW,334,0.0,10.0,51,0.00,,,0.00,0.000000,,2013-02-14 12:42:00,
2013-02-14 04:53:00,45.0,28.0,-100.00,NNW,334,0.0,10.0,51,0.00,,,0.00,0.000000,,2013-02-14 12:53:00,
2013-02-14 05:01:00,45.0,28.0,-100.00,NNW,334,0.0,10.0,51,0.00,,,0.00,0.000000,,2013-02-14 13:01:00,
2013-02-14 05:11:00,45.0,28.0,-100.00,NNW,334,0.0,10.0,51,0.00,,,0.00,0.000000,,2013-02-14 13:11:00,
2013-02-14 05:42:00,45.0,29.0,-100.00,East,89,0.0,4.0,53,0.00,,,0.00,0.000000,,2013-02-14 13:42:00,
2013-02-14 05:51:00,45.0,29.0,-100.00,East,89,0.0,4.0,53,0.00,,,0.00,0.000000,,2013-02-14 13:51:00,
2013-02-14 06:01:00,45.0,29.0,-100.00,East,89,0.0,4.0,53,0.00,,,0.00,0.000000,,2013-02-14 14:01:00,
2013-02-14 06:11:00,45.0,29.0,-100.00,East,89,0.0,4.0,53,0.00,,,0.00,0.000000,,2013-02-14 14:11:00,
2013-02-14 06:42:00,44.0,27.0,-100.00,ESE,114,0.0,5.0,51,0.00,,,0.00,0.000000,,2013-02-14 14:42:00,
2013-02-14 06:52:00,44.0,27.0,-100.00,ESE,114,0.0,5.0,51,0.00,,,0.00,0.000000,,2013-02-14 14:52:00,
2013-02-14 07:01:00,44.0,27.0,-100.00,ESE,114,0.0,5.0,51,0.00,,,0.00,0.000000,,2013-02-14 15:01:00,
2013-02-14 07:11:00,44.0,27.0,-100.00,ESE,114,0.0,5.0,51,0.00,,,0.00,0.000000,,2013-02-14 15:11:00,
2013-02-14 07:42:00,46.0,28.0,-100.00,ENE,62,0.0,6.0,49,0.00,,,0.00,7.000000,,2013-02-14 15:42:00,
2013-02-14 07:52:00,46.0,28.0,-100.00,ENE,62,0.0,6.0,49,0.00,,,0.00,7.000000,,2013-02-14 15:52:00,
2013-02-14 08:01:00,46.0,28.0,-100.00,ENE,62,0.0,6.0,49,0.00,,,0.00,7.000000,,2013-02-14 16:01:00,
2013-02-14 08:11:00,46.0,28.0,-100.00,ENE,62,0.0,6.0,49,0.00,,,0.00,7.000000,,2013-02-14 16:11:00,
2013-02-14 08:42:00,56.0,31.0,-100.00,East,93,1.0,10.0,39,0.00,,,0.00,161.000000,,2013-02-14 16:42:00,
2013-02-14 08:52:00,56.0,31.0,-100.00,East,93,1.0,10.0,39,0.00,,,0.00,161.000000,,2013-02-14 16:52:00,
2013-02-14 09:01:00,56.0,31.0,-100.00,East,93,1.0,10.0,39,0.00,,,0.00,161.000000,,2013-02-14 17:01:00,
2013-02-14 09:11:00,56.0,31.0,-100.00,East,93,1.0,10.0,39,0.00,,,0.00,161.000000,,2013-02-14 17:11:00,
2013-02-14 09:42:00,65.0,34.0,-100.00,West,266,0.0,4.0,31,0.00,,,0.00,422.000000,,2013-02-14 17:42:00,
2013-02-14 09:52:00,65.0,34.0,-100.00,West,266,0.0,4.0,31,0.00,,,0.00,422.000000,,2013-02-14 17:52:00,
2013-02-14 10:01:00,65.0,34.0,-100.00,West,266,0.0,4.0,31,0.00,,,0.00,422.000000,,2013-02-14 18:01:00,
2013-02-14 10:11:00,65.0,34.0,-100.00,West,266,0.0,4.0,31,0.00,,,0.00,422.000000,,2013-02-14 18:11:00,
2013-02-14 10:42:00,68.0,31.0,-100.00,WNW,289,2.0,7.0,25,0.00,,,0.00,574.000000,,2013-02-14 18:42:00,
2013-02-14 10:52:00,68.0,31.0,-100.00,WNW,289,2.0,7.0,25,0.00,,,0.00,574.000000,,2013-02-14 18:52:00,
2013-02-14 11:01:00,68.0,31.0,-100.00,WNW,289,2.0,7.0,25,0.00,,,0.00,574.000000,,2013-02-14 19:01:00,
2013-02-14 11:11:00,68.0,31.0,-100.00,WNW,289,2.0,7.0,25,0.00,,,0.00,574.000000,,2013-02-14 19:11:00,
2013-02-14 11:42:00,72.0,31.0,-100.00,West,267,5.0,8.0,22,0.00,,,0.00,642.000000,,2013-02-14 19:42:00,
2013-02-14 11:52:00,72.0,31.0,-100.00,West,267,5.0,8.0,22,0.00,,,0.00,642.000000,,2013-02-14 19:52:00,
2013-02-14 12:01:00,72.0,31.0,-100.00,West,267,5.0,8.0,22,0.00,,,0.00,642.000000,,2013-02-14 20:01:00,
2013-02-14 12:11:00,72.0,31.0,-100.00,West,267,5.0,8.0,22,0.00,,,0.00,642.000000,,2013-02-14 20:11:00,
2013-02-14 12:42:00,74.0,28.0,-100.00,West,276,3.0,9.0,18,0.00,,,0.00,630.000000,,2013-02-14 20:42:00,
2013-02-14 12:52:00,74.0,28.0,-100.00,West,276,3.0,9.0,18,0.00,,,0.00,630.000000,,2013-02-14 20:52:00,
2013-02-14 13:02:00,74.0,28.0,-100.00,West,276,3.0,9.0,18,0.00,,,0.00,630.000000,,2013-02-14 21:02:00,
2013-02-14 13:11:00,74.0,28.0,-100.00,West,276,3.0,9.0,18,0.00,,,0.00,630.000000,,2013-02-14 21:11:00,
2013-02-14 13:42:00,77.0,26.0,-100.00,West,273,2.0,8.0,15,0.00,,,0.00,690.000000,,2013-02-14 21:42:00,
2013-02-14 13:52:00,77.0,26.0,-100.00,West,273,2.0,8.0,15,0.00,,,0.00,690.000000,,2013-02-14 21:52:00,
2013-02-14 14:02:00,77.0,26.0,-100.00,West,273,2.0,8.0,15,0.00,,,0.00,690.000000,,2013-02-14 22:02:00,
2013-02-14 14:11:00,77.0,26.0,-100.00,West,273,2.0,8.0,15,0.00,,,0.00,690.000000,,2013-02-14 22:11:00,
2013-02-14 14:42:00,77.0,27.0,-100.00,NW,309,1.0,7.0,16,0.00,,,0.00,607.000000,,2013-02-14 22:42:00,
2013-02-14 14:52:00,77.0,27.0,-100.00,NW,309,1.0,7.0,16,0.00,,,0.00,607.000000,,2013-02-14 22:52:00,
2013-02-14 15:01:00,77.0,27.0,-100.00,NW,309,1.0,7.0,16,0.00,,,0.00,607.000000,,2013-02-14 23:01:00,
2013-02-14 15:11:00,77.0,27.0,-100.00,NW,309,1.0,7.0,16,0.00,,,0.00,607.000000,,2013-02-14 23:11:00,
2013-02-14 15:42:00,78.0,25.0,-100.00,WSW,254,4.0,10.0,14,0.00,,,0.00,473.000000,,2013-02-14 23:42:00,
2013-02-14 15:52:00,78.0,25.0,-100.00,WSW,254,4.0,10.0,14,0.00,,,0.00,473.000000,,2013-02-14 23:52:00,
2013-02-14 16:01:00,78.0,25.0,-100.00,WSW,254,4.0,10.0,14,0.00,,,0.00,473.000000,,2013-02-15 00:01:00,
2013-02-14 16:11:00,78.0,25.0,-100.00,WSW,254,4.0,10.0,14,0.00,,,0.00,473.000000,,2013-02-15 00:11:00,
2013-02-14 16:42:00,74.0,22.0,-100.00,SSE,167,1.0,10.0,14,-99.99,,,0.00,280.000000,,2013-02-15 00:42:00,
2013-02-14 16:52:00,74.0,22.0,-100.00,SSE,167,1.0,10.0,14,-99.99,,,0.00,280.000000,,2013-02-15 00:52:00,
2013-02-14 17:01:00,74.0,22.0,-100.00,SSE,167,1.0,10.0,14,-99.99,,,0.00,280.000000,,2013-02-15 01:01:00,
2013-02-14 17:11:00,74.0,22.0,-100.00,SSE,167,1.0,10.0,14,-99.99,,,0.00,280.000000,,2013-02-15 01:11:00,
2013-02-14 17:42:00,61.0,23.0,-100.00,SE,125,0.0,10.0,23,0.00,,,0.00,22.000000,,2013-02-15 01:42:00,
2013-02-14 17:52:00,61.0,23.0,-100.00,SE,125,0.0,10.0,23,0.00,,,0.00,22.000000,,2013-02-15 01:52:00,
2013-02-14 18:01:00,61.0,23.0,-100.00,SE,125,0.0,10.0,23,0.00,,,0.00,22.000000,,2013-02-15 02:01:00,
2013-02-14 18:32:00,58.0,24.0,-100.00,East,88,0.0,9.0,27,0.00,,,0.00,1.000000,,2013-02-15 02:32:00,
2013-02-14 18:42:00,58.0,24.0,-100.00,East,88,0.0,9.0,27,0.00,,,0.00,1.000000,,2013-02-15 02:42:00,
2013-02-14 18:52:00,58.0,24.0,-100.00,East,88,0.0,9.0,27,0.00,,,0.00,1.000000,,2013-02-15 02:52:00,
2013-02-14 19:01:00,58.0,24.0,-100.00,East,88,0.0,9.0,27,0.00,,,0.00,1.000000,,2013-02-15 03:01:00,
2013-02-14 19:11:00,58.0,24.0,-100.00,East,88,0.0,9.0,27,0.00,,,0.00,1.000000,,2013-02-15 03:11:00,
2013-02-14 19:42:00,57.0,20.0,-100.00,ESE,120,1.0,11.0,23,0.00,,,0.00,0.000000,,2013-02-15 03:42:00,
2013-02-14 19:52:00,57.0,20.0,-100.00,ESE,120,1.0,11.0,23,0.00,,,0.00,0.000000,,2013-02-15 03:52:00,
2013-02-14 20:01:00,57.0,20.0,-100.00,ESE,120,1.0,11.0,23,0.00,,,0.00,0.000000,,2013-02-15 04:01:00,
2013-02-14 20:11:00,57.0,20.0,-100.00,ESE,120,1.0,11.0,23,0.00,,,0.00,0.000000,,2013-02-15 04:11:00,
2013-02-14 20:42:00,53.0,22.0,-100.00,SE,133,1.0,9.0,29,0.00,,,0.00,0.000000,,2013-02-15 04:42:00,
2013-02-14 20:52:00,53.0,22.0,-100.00,SE,133,1.0,9.0,29,0.00,,,0.00,0.000000,,2013-02-15 04:52:00,
2013-02-14 21:01:00,53.0,22.0,-100.00,SE,133,1.0,9.0,29,0.00,,,0.00,0.000000,,2013-02-15 05:01:00,
2013-02-14 21:11:00,53.0,22.0,-100.00,SE,133,1.0,9.0,29,0.00,,,0.00,0.000000,,2013-02-15 05:11:00,
2013-02-14 21:42:00,54.0,25.0,-100.00,SSE,155,1.0,8.0,32,0.00,,,0.00,0.000000,,2013-02-15 05:42:00,
2013-02-14 21:52:00,54.0,25.0,-100.00,SSE,155,1.0,8.0,32,0.00,,,0.00,0.000000,,2013-02-15 05:52:00,
2013-02-14 22:01:00,54.0,25.0,-100.00,SSE,155,1.0,8.0,32,0.00,,,0.00,0.000000,,2013-02-15 06:01:00,
2013-02-14 22:11:00,54.0,25.0,-100.00,SSE,155,1.0,8.0,32,0.00,,,0.00,0.000000,,2013-02-15 06:11:00,
2013-02-14 22:32:00,51.0,23.0,-100.00,West,269,1.0,10.0,33,0.00,,,0.00,0.000000,,2013-02-15 06:32:00,
2013-02-14 22:42:00,51.0,23.0,-100.00,West,269,1.0,10.0,33,0.00,,,0.00,0.000000,,2013-02-15 06:42:00,
2013-02-14 22:52:00,51.0,23.0,-100.00,West,269,1.0,10.0,33,0.00,,,0.00,0.000000,,2013-02-15 06:52:00,
2013-02-14 23:01:00,51.0,23.0,-100.00,West,269,1.0,10.0,33,0.00,,,0.00,0.000000,,2013-02-15 07:01:00,
2013-02-14 23:11:00,51.0,23.0,-100.00,West,269,1.0,10.0,33,0.00,,,0.00,0.000000,,2013-02-15 07:11:00,
2013-02-14 23:42:00,52.0,23.0,-100.00,East,79,3.0,6.0,32,0.00,,,0.00,0.000000,,2013-02-15 07:42:00,
2013-02-14 23:52:00,52.0,23.0,-100.00,East,79,3.0,6.0,32,0.00,,,0.00,0.000000,,2013-02-15 07:52:00,